sensor_id;sensor_type;location;lat;lon;timestamp;P1;durP1;ratioP1;P2;durP2;ratioP2
7917;SDS011;4004;42.624;23.386;2023-02-28T00:00:09;23.70;;;18.33;;
7917;SDS011;4004;42.624;23.386;2023-02-28T00:02:39;23.07;;;18.97;;
7917;SDS011;4004;42.624;23.386;2023-02-28T00:05:07;22.53;;;17.97;;
7917;SDS011;4004;42.624;23.386;2023-02-28T00:07:35;25.77;;;19.10;;
7917;SDS011;4004;42.624;23.386;2023-02-28T00:10:03;26.60;;;19.57;;
7917;SDS011;4004;42.624;23.386;2023-02-28T00:12:31;24.03;;;18.03;;
7917;SDS011;4004;42.624;23.386;2023-02-28T00:14:58;24.67;;;18.07;;
7917;SDS011;4004;42.624;23.386;2023-02-28T00:17:24;21.47;;;16.23;;
7917;SDS011;4004;42.624;23.386;2023-02-28T00:19:52;23.33;;;15.60;;
7917;SDS011;4004;42.624;23.386;2023-02-28T00:22:20;20.43;;;15.97;;
7917;SDS011;4004;42.624;23.386;2023-02-28T00:24:47;20.50;;;15.63;;
7917;SDS011;4004;42.624;23.386;2023-02-28T00:27:14;25.03;;;16.97;;
7917;SDS011;4004;42.624;23.386;2023-02-28T00:29:41;22.00;;;16.63;;
7917;SDS011;4004;42.624;23.386;2023-02-28T00:32:07;23.53;;;16.93;;
7917;SDS011;4004;42.624;23.386;2023-02-28T00:34:34;24.20;;;17.67;;
7917;SDS011;4004;42.624;23.386;2023-02-28T00:37:04;21.67;;;17.60;;
7917;SDS011;4004;42.624;23.386;2023-02-28T00:39:33;26.13;;;19.10;;
7917;SDS011;4004;42.624;23.386;2023-02-28T00:42:00;22.77;;;17.70;;
7917;SDS011;4004;42.624;23.386;2023-02-28T00:44:27;17.13;;;14.57;;
7917;SDS011;4004;42.624;23.386;2023-02-28T00:46:54;23.80;;;17.63;;
7917;SDS011;4004;42.624;23.386;2023-02-28T00:49:21;24.93;;;18.10;;
7917;SDS011;4004;42.624;23.386;2023-02-28T00:51:48;21.87;;;17.87;;
7917;SDS011;4004;42.624;23.386;2023-02-28T00:54:16;31.57;;;22.30;;
7917;SDS011;4004;42.624;23.386;2023-02-28T00:56:43;29.70;;;21.53;;
7917;SDS011;4004;42.624;23.386;2023-02-28T00:59:11;27.37;;;20.83;;
7917;SDS011;4004;42.624;23.386;2023-02-28T01:01:37;30.23;;;22.13;;
7917;SDS011;4004;42.624;23.386;2023-02-28T01:04:04;31.60;;;22.47;;
7917;SDS011;4004;42.624;23.386;2023-02-28T01:06:31;28.60;;;22.73;;
7917;SDS011;4004;42.624;23.386;2023-02-28T01:08:58;31.30;;;23.60;;
7917;SDS011;4004;42.624;23.386;2023-02-28T01:11:26;25.30;;;20.50;;
7917;SDS011;4004;42.624;23.386;2023-02-28T01:13:53;24.80;;;20.20;;
7917;SDS011;4004;42.624;23.386;2023-02-28T01:16:20;24.53;;;18.57;;
7917;SDS011;4004;42.624;23.386;2023-02-28T01:18:46;26.93;;;20.17;;
7917;SDS011;4004;42.624;23.386;2023-02-28T01:21:14;27.07;;;19.43;;
7917;SDS011;4004;42.624;23.386;2023-02-28T01:23:41;20.50;;;17.43;;
7917;SDS011;4004;42.624;23.386;2023-02-28T01:26:09;22.47;;;18.57;;
7917;SDS011;4004;42.624;23.386;2023-02-28T01:28:39;24.00;;;18.27;;
7917;SDS011;4004;42.624;23.386;2023-02-28T01:31:06;23.80;;;18.53;;
7917;SDS011;4004;42.624;23.386;2023-02-28T01:33:34;24.33;;;18.97;;
7917;SDS011;4004;42.624;23.386;2023-02-28T01:36:01;25.57;;;18.87;;
7917;SDS011;4004;42.624;23.386;2023-02-28T01:38:29;26.97;;;19.53;;
7917;SDS011;4004;42.624;23.386;2023-02-28T01:40:56;20.20;;;17.53;;
7917;SDS011;4004;42.624;23.386;2023-02-28T01:43:24;22.87;;;18.20;;
7917;SDS011;4004;42.624;23.386;2023-02-28T01:45:54;21.30;;;18.20;;
7917;SDS011;4004;42.624;23.386;2023-02-28T01:48:23;23.07;;;18.10;;
7917;SDS011;4004;42.624;23.386;2023-02-28T01:50:52;23.10;;;19.93;;
7917;SDS011;4004;42.624;23.386;2023-02-28T01:53:21;23.17;;;18.77;;
7917;SDS011;4004;42.624;23.386;2023-02-28T01:55:52;25.33;;;20.57;;
7917;SDS011;4004;42.624;23.386;2023-02-28T01:58:21;23.13;;;19.07;;
7917;SDS011;4004;42.624;23.386;2023-02-28T02:00:47;22.50;;;18.30;;
7917;SDS011;4004;42.624;23.386;2023-02-28T02:03:16;23.77;;;18.73;;
7917;SDS011;4004;42.624;23.386;2023-02-28T02:05:46;25.43;;;18.83;;
7917;SDS011;4004;42.624;23.386;2023-02-28T02:08:16;23.50;;;18.80;;
7917;SDS011;4004;42.624;23.386;2023-02-28T02:10:45;25.87;;;19.00;;
7917;SDS011;4004;42.624;23.386;2023-02-28T02:13:21;24.87;;;19.30;;
7917;SDS011;4004;42.624;23.386;2023-02-28T02:15:57;25.60;;;19.60;;
7917;SDS011;4004;42.624;23.386;2023-02-28T02:18:32;25.60;;;20.17;;
7917;SDS011;4004;42.624;23.386;2023-02-28T02:21:18;25.33;;;20.47;;
7917;SDS011;4004;42.624;23.386;2023-02-28T02:27:05;26.33;;;19.50;;
7917;SDS011;4004;42.624;23.386;2023-02-28T02:29:48;26.10;;;20.40;;
7917;SDS011;4004;42.624;23.386;2023-02-28T02:32:43;27.47;;;20.43;;
7917;SDS011;4004;42.624;23.386;2023-02-28T02:35:31;27.07;;;20.83;;
7917;SDS011;4004;42.624;23.386;2023-02-28T02:38:03;30.17;;;21.07;;
7917;SDS011;4004;42.624;23.386;2023-02-28T02:40:37;30.23;;;20.63;;
7917;SDS011;4004;42.624;23.386;2023-02-28T02:43:11;29.60;;;21.30;;
7917;SDS011;4004;42.624;23.386;2023-02-28T02:45:42;29.97;;;20.17;;
7917;SDS011;4004;42.624;23.386;2023-02-28T02:48:12;29.87;;;21.00;;
7917;SDS011;4004;42.624;23.386;2023-02-28T02:50:43;31.47;;;21.67;;
7917;SDS011;4004;42.624;23.386;2023-02-28T02:53:12;31.13;;;21.27;;
7917;SDS011;4004;42.624;23.386;2023-02-28T02:55:44;28.83;;;22.37;;
7917;SDS011;4004;42.624;23.386;2023-02-28T02:58:18;28.67;;;22.33;;
7917;SDS011;4004;42.624;23.386;2023-02-28T03:00:48;30.23;;;21.37;;
7917;SDS011;4004;42.624;23.386;2023-02-28T03:03:19;94.57;;;23.67;;
7917;SDS011;4004;42.624;23.386;2023-02-28T03:05:55;27.07;;;21.53;;
7917;SDS011;4004;42.624;23.386;2023-02-28T03:08:24;30.67;;;22.73;;
7917;SDS011;4004;42.624;23.386;2023-02-28T03:10:51;34.60;;;22.20;;
7917;SDS011;4004;42.624;23.386;2023-02-28T03:16:35;27.20;;;21.57;;
7917;SDS011;4004;42.624;23.386;2023-02-28T03:19:10;147.43;;;26.13;;
7917;SDS011;4004;42.624;23.386;2023-02-28T03:21:55;110.70;;;24.17;;
7917;SDS011;4004;42.624;23.386;2023-02-28T03:24:31;123.47;;;23.83;;
7917;SDS011;4004;42.624;23.386;2023-02-28T03:27:04;225.63;;;27.17;;
7917;SDS011;4004;42.624;23.386;2023-02-28T03:29:35;71.80;;;25.73;;
7917;SDS011;4004;42.624;23.386;2023-02-28T03:32:11;81.03;;;25.93;;
7917;SDS011;4004;42.624;23.386;2023-02-28T03:34:47;49.70;;;26.77;;
7917;SDS011;4004;42.624;23.386;2023-02-28T03:37:22;184.17;;;29.90;;
7917;SDS011;4004;42.624;23.386;2023-02-28T03:39:53;98.87;;;29.37;;
7917;SDS011;4004;42.624;23.386;2023-02-28T03:42:25;84.13;;;29.57;;
7917;SDS011;4004;42.624;23.386;2023-02-28T03:44:55;50.37;;;28.53;;
7917;SDS011;4004;42.624;23.386;2023-02-28T03:47:27;46.53;;;28.50;;
7917;SDS011;4004;42.624;23.386;2023-02-28T03:49:58;45.80;;;26.73;;
7917;SDS011;4004;42.624;23.386;2023-02-28T03:52:30;40.73;;;26.63;;
7917;SDS011;4004;42.624;23.386;2023-02-28T03:55:02;41.43;;;27.93;;
7917;SDS011;4004;42.624;23.386;2023-02-28T03:57:33;40.23;;;27.23;;
7917;SDS011;4004;42.624;23.386;2023-02-28T04:00:06;65.27;;;28.20;;
7917;SDS011;4004;42.624;23.386;2023-02-28T04:02:38;47.70;;;26.47;;
7917;SDS011;4004;42.624;23.386;2023-02-28T04:05:05;119.47;;;32.87;;
7917;SDS011;4004;42.624;23.386;2023-02-28T04:07:34;58.20;;;30.47;;
7917;SDS011;4004;42.624;23.386;2023-02-28T04:10:02;84.27;;;30.77;;
7917;SDS011;4004;42.624;23.386;2023-02-28T04:12:30;146.07;;;30.50;;
7917;SDS011;4004;42.624;23.386;2023-02-28T04:14:56;157.83;;;31.90;;
7917;SDS011;4004;42.624;23.386;2023-02-28T04:17:23;191.13;;;32.60;;
7917;SDS011;4004;42.624;23.386;2023-02-28T04:19:50;198.67;;;30.67;;
7917;SDS011;4004;42.624;23.386;2023-02-28T04:22:17;170.00;;;32.50;;
7917;SDS011;4004;42.624;23.386;2023-02-28T04:24:45;152.33;;;30.53;;
7917;SDS011;4004;42.624;23.386;2023-02-28T04:27:12;173.97;;;31.00;;
7917;SDS011;4004;42.624;23.386;2023-02-28T04:29:40;192.27;;;28.83;;
7917;SDS011;4004;42.624;23.386;2023-02-28T04:32:09;157.70;;;30.50;;
7917;SDS011;4004;42.624;23.386;2023-02-28T04:34:36;189.53;;;29.40;;
7917;SDS011;4004;42.624;23.386;2023-02-28T04:37:04;112.40;;;26.00;;
7917;SDS011;4004;42.624;23.386;2023-02-28T04:39:34;140.53;;;31.80;;
7917;SDS011;4004;42.624;23.386;2023-02-28T04:42:03;230.77;;;32.67;;
7917;SDS011;4004;42.624;23.386;2023-02-28T04:44:29;273.23;;;34.00;;
7917;SDS011;4004;42.624;23.386;2023-02-28T04:46:56;485.53;;;38.33;;
7917;SDS011;4004;42.624;23.386;2023-02-28T04:49:23;276.67;;;33.90;;
7917;SDS011;4004;42.624;23.386;2023-02-28T04:51:50;423.50;;;38.23;;
7917;SDS011;4004;42.624;23.386;2023-02-28T04:54:17;494.30;;;41.07;;
7917;SDS011;4004;42.624;23.386;2023-02-28T04:56:44;436.17;;;37.13;;
7917;SDS011;4004;42.624;23.386;2023-02-28T04:59:14;227.13;;;31.77;;
7917;SDS011;4004;42.624;23.386;2023-02-28T05:01:44;148.13;;;30.70;;
7917;SDS011;4004;42.624;23.386;2023-02-28T05:04:12;247.20;;;31.77;;
7917;SDS011;4004;42.624;23.386;2023-02-28T05:06:39;100.60;;;27.97;;
7917;SDS011;4004;42.624;23.386;2023-02-28T05:09:05;111.00;;;29.77;;
7917;SDS011;4004;42.624;23.386;2023-02-28T05:11:33;142.37;;;29.73;;
7917;SDS011;4004;42.624;23.386;2023-02-28T05:14:01;239.60;;;31.00;;
7917;SDS011;4004;42.624;23.386;2023-02-28T05:16:29;236.20;;;116.63;;
7917;SDS011;4004;42.624;23.386;2023-02-28T05:18:56;378.10;;;57.40;;
7917;SDS011;4004;42.624;23.386;2023-02-28T05:21:24;108.63;;;32.13;;
7917;SDS011;4004;42.624;23.386;2023-02-28T05:23:53;299.77;;;35.93;;
7917;SDS011;4004;42.624;23.386;2023-02-28T05:26:21;329.10;;;32.97;;
7917;SDS011;4004;42.624;23.386;2023-02-28T05:28:48;162.97;;;32.70;;
7917;SDS011;4004;42.624;23.386;2023-02-28T05:31:14;89.23;;;30.87;;
7917;SDS011;4004;42.624;23.386;2023-02-28T05:33:42;255.17;;;32.73;;
7917;SDS011;4004;42.624;23.386;2023-02-28T05:36:09;57.97;;;28.93;;
7917;SDS011;4004;42.624;23.386;2023-02-28T05:38:36;42.77;;;29.03;;
7917;SDS011;4004;42.624;23.386;2023-02-28T05:41:06;48.00;;;28.27;;
7917;SDS011;4004;42.624;23.386;2023-02-28T05:43:34;82.83;;;62.30;;
7917;SDS011;4004;42.624;23.386;2023-02-28T05:46:02;68.37;;;37.27;;
7917;SDS011;4004;42.624;23.386;2023-02-28T05:48:30;61.07;;;28.73;;
7917;SDS011;4004;42.624;23.386;2023-02-28T05:50:58;38.27;;;25.93;;
7917;SDS011;4004;42.624;23.386;2023-02-28T05:53:25;41.37;;;27.43;;
7917;SDS011;4004;42.624;23.386;2023-02-28T05:55:52;52.60;;;28.83;;
7917;SDS011;4004;42.624;23.386;2023-02-28T05:58:18;45.93;;;27.40;;
7917;SDS011;4004;42.624;23.386;2023-02-28T06:00:45;43.63;;;28.53;;
7917;SDS011;4004;42.624;23.386;2023-02-28T06:03:12;38.43;;;26.93;;
7917;SDS011;4004;42.624;23.386;2023-02-28T06:05:39;38.73;;;26.53;;
7917;SDS011;4004;42.624;23.386;2023-02-28T06:08:07;37.43;;;27.03;;
7917;SDS011;4004;42.624;23.386;2023-02-28T06:10:33;37.27;;;25.27;;
7917;SDS011;4004;42.624;23.386;2023-02-28T06:13:00;32.83;;;23.53;;
7917;SDS011;4004;42.624;23.386;2023-02-28T06:15:28;28.97;;;21.43;;
7917;SDS011;4004;42.624;23.386;2023-02-28T06:17:55;25.27;;;19.07;;
7917;SDS011;4004;42.624;23.386;2023-02-28T06:20:23;29.10;;;20.80;;
7917;SDS011;4004;42.624;23.386;2023-02-28T06:22:51;28.13;;;20.60;;
7917;SDS011;4004;42.624;23.386;2023-02-28T06:25:20;27.23;;;19.87;;
7917;SDS011;4004;42.624;23.386;2023-02-28T06:27:47;26.27;;;18.33;;
7917;SDS011;4004;42.624;23.386;2023-02-28T06:30:14;25.70;;;20.00;;
7917;SDS011;4004;42.624;23.386;2023-02-28T06:32:41;25.53;;;19.07;;
7917;SDS011;4004;42.624;23.386;2023-02-28T06:35:08;28.97;;;22.03;;
7917;SDS011;4004;42.624;23.386;2023-02-28T06:37:35;35.83;;;26.43;;
7917;SDS011;4004;42.624;23.386;2023-02-28T06:40:02;36.67;;;26.03;;
7917;SDS011;4004;42.624;23.386;2023-02-28T06:42:33;40.80;;;28.53;;
7917;SDS011;4004;42.624;23.386;2023-02-28T06:45:00;40.67;;;27.97;;
7917;SDS011;4004;42.624;23.386;2023-02-28T06:47:34;36.10;;;26.97;;
7917;SDS011;4004;42.624;23.386;2023-02-28T06:50:00;34.50;;;23.70;;
7917;SDS011;4004;42.624;23.386;2023-02-28T06:52:27;30.07;;;20.43;;
7917;SDS011;4004;42.624;23.386;2023-02-28T06:54:54;28.90;;;23.13;;
7917;SDS011;4004;42.624;23.386;2023-02-28T06:57:24;30.60;;;22.43;;
7917;SDS011;4004;42.624;23.386;2023-02-28T06:59:53;30.40;;;22.97;;
7917;SDS011;4004;42.624;23.386;2023-02-28T07:02:19;30.93;;;22.77;;
7917;SDS011;4004;42.624;23.386;2023-02-28T07:04:46;34.23;;;23.23;;
7917;SDS011;4004;42.624;23.386;2023-02-28T07:07:13;34.57;;;23.10;;
7917;SDS011;4004;42.624;23.386;2023-02-28T07:09:39;29.43;;;21.93;;
7917;SDS011;4004;42.624;23.386;2023-02-28T07:12:06;30.83;;;23.83;;
7917;SDS011;4004;42.624;23.386;2023-02-28T07:14:33;32.57;;;23.30;;
7917;SDS011;4004;42.624;23.386;2023-02-28T07:17:01;32.00;;;23.77;;
7917;SDS011;4004;42.624;23.386;2023-02-28T07:19:28;33.50;;;22.87;;
7917;SDS011;4004;42.624;23.386;2023-02-28T07:21:54;30.07;;;21.87;;
7917;SDS011;4004;42.624;23.386;2023-02-28T07:24:21;30.97;;;20.63;;
7917;SDS011;4004;42.624;23.386;2023-02-28T07:26:50;30.30;;;20.27;;
7917;SDS011;4004;42.624;23.386;2023-02-28T07:29:17;31.37;;;21.83;;
7917;SDS011;4004;42.624;23.386;2023-02-28T07:31:44;31.80;;;22.17;;
7917;SDS011;4004;42.624;23.386;2023-02-28T07:34:13;34.63;;;24.47;;
7917;SDS011;4004;42.624;23.386;2023-02-28T07:36:39;32.77;;;24.60;;
7917;SDS011;4004;42.624;23.386;2023-02-28T07:39:06;31.07;;;25.67;;
7917;SDS011;4004;42.624;23.386;2023-02-28T07:41:34;38.70;;;25.33;;
7917;SDS011;4004;42.624;23.386;2023-02-28T07:44:04;33.87;;;25.03;;
7917;SDS011;4004;42.624;23.386;2023-02-28T07:46:31;41.83;;;24.30;;
7917;SDS011;4004;42.624;23.386;2023-02-28T07:49:00;36.20;;;25.40;;
7917;SDS011;4004;42.624;23.386;2023-02-28T07:51:29;33.73;;;24.23;;
7917;SDS011;4004;42.624;23.386;2023-02-28T07:53:56;29.43;;;21.47;;
7917;SDS011;4004;42.624;23.386;2023-02-28T07:56:23;32.97;;;23.20;;
7917;SDS011;4004;42.624;23.386;2023-02-28T07:58:50;35.23;;;22.43;;
7917;SDS011;4004;42.624;23.386;2023-02-28T08:01:16;34.77;;;24.40;;
7917;SDS011;4004;42.624;23.386;2023-02-28T08:03:44;30.33;;;22.80;;
7917;SDS011;4004;42.624;23.386;2023-02-28T08:06:15;36.23;;;23.07;;
7917;SDS011;4004;42.624;23.386;2023-02-28T08:08:44;29.53;;;22.93;;
7917;SDS011;4004;42.624;23.386;2023-02-28T08:11:11;32.87;;;24.33;;
7917;SDS011;4004;42.624;23.386;2023-02-28T08:13:38;40.90;;;25.43;;
7917;SDS011;4004;42.624;23.386;2023-02-28T08:16:07;34.60;;;22.97;;
7917;SDS011;4004;42.624;23.386;2023-02-28T08:18:34;37.33;;;24.13;;
7917;SDS011;4004;42.624;23.386;2023-02-28T08:21:05;38.63;;;23.33;;
7917;SDS011;4004;42.624;23.386;2023-02-28T08:23:32;41.43;;;23.47;;
7917;SDS011;4004;42.624;23.386;2023-02-28T08:26:02;31.40;;;21.83;;
7917;SDS011;4004;42.624;23.386;2023-02-28T08:28:30;33.77;;;22.53;;
7917;SDS011;4004;42.624;23.386;2023-02-28T08:30:57;33.87;;;22.93;;
7917;SDS011;4004;42.624;23.386;2023-02-28T08:33:24;42.43;;;23.30;;
7917;SDS011;4004;42.624;23.386;2023-02-28T08:35:52;34.27;;;23.87;;
7917;SDS011;4004;42.624;23.386;2023-02-28T08:38:20;33.53;;;23.23;;
7917;SDS011;4004;42.624;23.386;2023-02-28T08:40:47;29.43;;;19.00;;
7917;SDS011;4004;42.624;23.386;2023-02-28T08:43:15;29.13;;;18.97;;
7917;SDS011;4004;42.624;23.386;2023-02-28T08:45:41;27.77;;;18.93;;
7917;SDS011;4004;42.624;23.386;2023-02-28T08:48:08;27.43;;;16.87;;
7917;SDS011;4004;42.624;23.386;2023-02-28T08:50:35;32.07;;;16.70;;
7917;SDS011;4004;42.624;23.386;2023-02-28T08:53:02;26.23;;;15.83;;
7917;SDS011;4004;42.624;23.386;2023-02-28T08:55:28;19.23;;;10.77;;
7917;SDS011;4004;42.624;23.386;2023-02-28T08:57:55;26.07;;;10.93;;
7917;SDS011;4004;42.624;23.386;2023-02-28T09:00:24;14.73;;;9.87;;
7917;SDS011;4004;42.624;23.386;2023-02-28T09:02:51;19.47;;;10.70;;
7917;SDS011;4004;42.624;23.386;2023-02-28T09:05:19;23.03;;;11.13;;
7917;SDS011;4004;42.624;23.386;2023-02-28T09:07:46;20.67;;;11.10;;
7917;SDS011;4004;42.624;23.386;2023-02-28T09:10:13;18.00;;;10.03;;
7917;SDS011;4004;42.624;23.386;2023-02-28T09:12:39;18.77;;;10.37;;
7917;SDS011;4004;42.624;23.386;2023-02-28T09:15:07;22.40;;;10.63;;
7917;SDS011;4004;42.624;23.386;2023-02-28T09:17:35;19.17;;;10.70;;
7917;SDS011;4004;42.624;23.386;2023-02-28T09:20:02;32.07;;;11.80;;
7917;SDS011;4004;42.624;23.386;2023-02-28T09:22:30;21.23;;;11.03;;
7917;SDS011;4004;42.624;23.386;2023-02-28T09:24:57;18.73;;;10.97;;
7917;SDS011;4004;42.624;23.386;2023-02-28T09:27:24;20.07;;;9.90;;
7917;SDS011;4004;42.624;23.386;2023-02-28T09:29:51;19.47;;;10.50;;
7917;SDS011;4004;42.624;23.386;2023-02-28T09:32:17;20.37;;;11.43;;
7917;SDS011;4004;42.624;23.386;2023-02-28T09:34:45;19.27;;;10.73;;
7917;SDS011;4004;42.624;23.386;2023-02-28T09:37:12;19.87;;;10.73;;
7917;SDS011;4004;42.624;23.386;2023-02-28T09:39:39;20.60;;;10.83;;
7917;SDS011;4004;42.624;23.386;2023-02-28T09:42:05;23.93;;;11.57;;
7917;SDS011;4004;42.624;23.386;2023-02-28T09:44:43;21.27;;;10.53;;
7917;SDS011;4004;42.624;23.386;2023-02-28T09:47:15;22.57;;;9.73;;
7917;SDS011;4004;42.624;23.386;2023-02-28T09:49:55;34.30;;;10.27;;
7917;SDS011;4004;42.624;23.386;2023-02-28T09:52:27;22.50;;;11.13;;
7917;SDS011;4004;42.624;23.386;2023-02-28T09:54:58;23.47;;;10.63;;
7917;SDS011;4004;42.624;23.386;2023-02-28T09:57:35;20.87;;;10.20;;
7917;SDS011;4004;42.624;23.386;2023-02-28T10:00:07;25.07;;;9.90;;
7917;SDS011;4004;42.624;23.386;2023-02-28T10:02:49;23.63;;;10.93;;
7917;SDS011;4004;42.624;23.386;2023-02-28T10:05:26;18.70;;;9.90;;
7917;SDS011;4004;42.624;23.386;2023-02-28T10:08:01;22.97;;;10.57;;
7917;SDS011;4004;42.624;23.386;2023-02-28T10:10:35;18.27;;;11.40;;
7917;SDS011;4004;42.624;23.386;2023-02-28T10:13:06;17.00;;;11.07;;
7917;SDS011;4004;42.624;23.386;2023-02-28T10:15:42;23.77;;;13.33;;
7917;SDS011;4004;42.624;23.386;2023-02-28T10:18:12;20.37;;;15.57;;
7917;SDS011;4004;42.624;23.386;2023-02-28T10:20:43;28.17;;;11.43;;
7917;SDS011;4004;42.624;23.386;2023-02-28T10:23:12;18.40;;;10.10;;
7917;SDS011;4004;42.624;23.386;2023-02-28T10:25:44;25.87;;;10.50;;
7917;SDS011;4004;42.624;23.386;2023-02-28T10:28:16;25.73;;;11.13;;
7917;SDS011;4004;42.624;23.386;2023-02-28T10:30:45;19.07;;;9.57;;
7917;SDS011;4004;42.624;23.386;2023-02-28T10:33:17;29.07;;;10.57;;
7917;SDS011;4004;42.624;23.386;2023-02-28T10:35:47;23.30;;;10.10;;
7917;SDS011;4004;42.624;23.386;2023-02-28T10:38:16;18.50;;;9.40;;
7917;SDS011;4004;42.624;23.386;2023-02-28T10:40:44;16.83;;;10.43;;
7917;SDS011;4004;42.624;23.386;2023-02-28T10:43:18;19.67;;;9.83;;
7917;SDS011;4004;42.624;23.386;2023-02-28T10:45:55;23.03;;;10.83;;
7917;SDS011;4004;42.624;23.386;2023-02-28T10:48:29;23.30;;;10.40;;
7917;SDS011;4004;42.624;23.386;2023-02-28T10:51:02;20.47;;;9.37;;
7917;SDS011;4004;42.624;23.386;2023-02-28T10:53:32;18.97;;;9.97;;
7917;SDS011;4004;42.624;23.386;2023-02-28T10:56:04;26.20;;;10.73;;
7917;SDS011;4004;42.624;23.386;2023-02-28T10:58:42;18.03;;;9.60;;
7917;SDS011;4004;42.624;23.386;2023-02-28T11:01:13;24.70;;;11.07;;
7917;SDS011;4004;42.624;23.386;2023-02-28T11:03:41;24.37;;;11.50;;
7917;SDS011;4004;42.624;23.386;2023-02-28T11:06:13;25.10;;;11.27;;
7917;SDS011;4004;42.624;23.386;2023-02-28T11:08:43;19.93;;;10.47;;
7917;SDS011;4004;42.624;23.386;2023-02-28T11:11:12;21.27;;;10.53;;
7917;SDS011;4004;42.624;23.386;2023-02-28T11:13:38;18.43;;;11.43;;
7917;SDS011;4004;42.624;23.386;2023-02-28T11:16:07;23.37;;;11.97;;
7917;SDS011;4004;42.624;23.386;2023-02-28T11:18:38;22.63;;;12.77;;
7917;SDS011;4004;42.624;23.386;2023-02-28T11:21:08;23.93;;;12.90;;
7917;SDS011;4004;42.624;23.386;2023-02-28T11:23:42;23.17;;;12.27;;
7917;SDS011;4004;42.624;23.386;2023-02-28T11:26:10;24.50;;;10.83;;
7917;SDS011;4004;42.624;23.386;2023-02-28T11:28:37;24.37;;;12.43;;
7917;SDS011;4004;42.624;23.386;2023-02-28T11:31:14;24.50;;;10.83;;
7917;SDS011;4004;42.624;23.386;2023-02-28T11:33:45;21.00;;;10.90;;
7917;SDS011;4004;42.624;23.386;2023-02-28T11:36:14;20.93;;;10.97;;
7917;SDS011;4004;42.624;23.386;2023-02-28T11:38:44;21.43;;;12.50;;
7917;SDS011;4004;42.624;23.386;2023-02-28T11:44:13;20.80;;;11.67;;
7917;SDS011;4004;42.624;23.386;2023-02-28T11:46:49;17.07;;;11.90;;
7917;SDS011;4004;42.624;23.386;2023-02-28T11:49:23;27.83;;;12.53;;
7917;SDS011;4004;42.624;23.386;2023-02-28T11:51:59;16.80;;;10.50;;
7917;SDS011;4004;42.624;23.386;2023-02-28T11:54:39;25.60;;;11.73;;
7917;SDS011;4004;42.624;23.386;2023-02-28T11:57:35;19.53;;;11.83;;
7917;SDS011;4004;42.624;23.386;2023-02-28T12:00:19;21.40;;;11.93;;
7917;SDS011;4004;42.624;23.386;2023-02-28T12:03:01;24.23;;;11.53;;
7917;SDS011;4004;42.624;23.386;2023-02-28T12:05:36;22.60;;;11.70;;
7917;SDS011;4004;42.624;23.386;2023-02-28T12:08:15;20.83;;;11.90;;
7917;SDS011;4004;42.624;23.386;2023-02-28T12:10:56;21.13;;;14.03;;
7917;SDS011;4004;42.624;23.386;2023-02-28T12:13:32;19.73;;;11.93;;
7917;SDS011;4004;42.624;23.386;2023-02-28T12:16:18;19.63;;;12.07;;
7917;SDS011;4004;42.624;23.386;2023-02-28T12:19:07;22.87;;;12.73;;
7917;SDS011;4004;42.624;23.386;2023-02-28T12:21:47;23.90;;;11.33;;
7917;SDS011;4004;42.624;23.386;2023-02-28T12:27:37;19.53;;;12.30;;
7917;SDS011;4004;42.624;23.386;2023-02-28T12:30:12;22.40;;;11.57;;
7917;SDS011;4004;42.624;23.386;2023-02-28T12:32:43;20.90;;;12.07;;
7917;SDS011;4004;42.624;23.386;2023-02-28T12:35:15;18.90;;;11.37;;
7917;SDS011;4004;42.624;23.386;2023-02-28T12:37:46;28.33;;;13.10;;
7917;SDS011;4004;42.624;23.386;2023-02-28T12:40:20;27.30;;;15.70;;
7917;SDS011;4004;42.624;23.386;2023-02-28T12:42:51;19.90;;;12.33;;
7917;SDS011;4004;42.624;23.386;2023-02-28T12:45:22;19.63;;;13.07;;
7917;SDS011;4004;42.624;23.386;2023-02-28T12:47:51;26.50;;;13.63;;
7917;SDS011;4004;42.624;23.386;2023-02-28T12:50:23;27.57;;;14.30;;
7917;SDS011;4004;42.624;23.386;2023-02-28T12:52:54;25.60;;;14.90;;
7917;SDS011;4004;42.624;23.386;2023-02-28T12:55:29;25.23;;;14.27;;
7917;SDS011;4004;42.624;23.386;2023-02-28T12:58:08;18.80;;;12.43;;
7917;SDS011;4004;42.624;23.386;2023-02-28T13:00:46;22.50;;;13.13;;
7917;SDS011;4004;42.624;23.386;2023-02-28T13:06:41;20.83;;;13.03;;
7917;SDS011;4004;42.624;23.386;2023-02-28T13:09:21;18.27;;;10.60;;
7917;SDS011;4004;42.624;23.386;2023-02-28T13:11:48;21.97;;;11.13;;
7917;SDS011;4004;42.624;23.386;2023-02-28T13:14:20;22.50;;;12.63;;
7917;SDS011;4004;42.624;23.386;2023-02-28T13:16:55;25.00;;;12.37;;
7917;SDS011;4004;42.624;23.386;2023-02-28T13:19:25;23.70;;;11.17;;
7917;SDS011;4004;42.624;23.386;2023-02-28T13:21:54;19.00;;;10.47;;
7917;SDS011;4004;42.624;23.386;2023-02-28T13:24:42;21.60;;;10.73;;
7917;SDS011;4004;42.624;23.386;2023-02-28T13:33:27;18.40;;;11.20;;
7917;SDS011;4004;42.624;23.386;2023-02-28T13:36:09;23.27;;;11.37;;
7917;SDS011;4004;42.624;23.386;2023-02-28T13:38:49;20.27;;;10.80;;
7917;SDS011;4004;42.624;23.386;2023-02-28T13:41:40;18.50;;;12.03;;
7917;SDS011;4004;42.624;23.386;2023-02-28T13:44:08;24.50;;;13.13;;
7917;SDS011;4004;42.624;23.386;2023-02-28T13:46:37;22.60;;;11.33;;
7917;SDS011;4004;42.624;23.386;2023-02-28T13:49:43;24.53;;;11.80;;
7917;SDS011;4004;42.624;23.386;2023-02-28T13:52:11;23.33;;;13.47;;
7917;SDS011;4004;42.624;23.386;2023-02-28T13:54:49;24.30;;;12.60;;
7917;SDS011;4004;42.624;23.386;2023-02-28T13:57:25;26.43;;;13.10;;
7917;SDS011;4004;42.624;23.386;2023-02-28T14:00:13;30.57;;;12.53;;
7917;SDS011;4004;42.624;23.386;2023-02-28T14:03:01;26.93;;;13.97;;
7917;SDS011;4004;42.624;23.386;2023-02-28T14:05:38;23.57;;;12.63;;
7917;SDS011;4004;42.624;23.386;2023-02-28T14:08:06;24.17;;;12.50;;
7917;SDS011;4004;42.624;23.386;2023-02-28T14:10:41;28.87;;;13.87;;
7917;SDS011;4004;42.624;23.386;2023-02-28T14:16:09;18.20;;;12.20;;
7917;SDS011;4004;42.624;23.386;2023-02-28T14:18:38;28.37;;;12.83;;
7917;SDS011;4004;42.624;23.386;2023-02-28T14:21:13;25.17;;;13.97;;
7917;SDS011;4004;42.624;23.386;2023-02-28T14:27:03;25.90;;;13.90;;
7917;SDS011;4004;42.624;23.386;2023-02-28T14:32:41;25.23;;;13.13;;
7917;SDS011;4004;42.624;23.386;2023-02-28T14:35:18;24.77;;;14.17;;
7917;SDS011;4004;42.624;23.386;2023-02-28T14:37:56;19.30;;;12.87;;
7917;SDS011;4004;42.624;23.386;2023-02-28T14:40:25;25.63;;;13.73;;
7917;SDS011;4004;42.624;23.386;2023-02-28T14:42:56;23.37;;;14.13;;
7917;SDS011;4004;42.624;23.386;2023-02-28T14:45:25;24.47;;;13.67;;
7917;SDS011;4004;42.624;23.386;2023-02-28T14:47:53;24.40;;;13.73;;
7917;SDS011;4004;42.624;23.386;2023-02-28T14:50:21;30.20;;;13.50;;
7917;SDS011;4004;42.624;23.386;2023-02-28T14:52:51;26.23;;;15.07;;
7917;SDS011;4004;42.624;23.386;2023-02-28T14:55:22;26.47;;;14.73;;
7917;SDS011;4004;42.624;23.386;2023-02-28T14:57:53;28.43;;;15.47;;
7917;SDS011;4004;42.624;23.386;2023-02-28T15:00:22;24.57;;;14.80;;
7917;SDS011;4004;42.624;23.386;2023-02-28T15:02:51;24.87;;;14.30;;
7917;SDS011;4004;42.624;23.386;2023-02-28T15:05:21;26.90;;;13.73;;
7917;SDS011;4004;42.624;23.386;2023-02-28T15:08:00;20.70;;;12.93;;
7917;SDS011;4004;42.624;23.386;2023-02-28T15:10:30;24.80;;;13.33;;
7917;SDS011;4004;42.624;23.386;2023-02-28T15:12:58;21.40;;;12.43;;
7917;SDS011;4004;42.624;23.386;2023-02-28T15:15:28;21.97;;;11.63;;
7917;SDS011;4004;42.624;23.386;2023-02-28T15:18:05;24.97;;;11.33;;
7917;SDS011;4004;42.624;23.386;2023-02-28T15:20:34;21.33;;;11.97;;
7917;SDS011;4004;42.624;23.386;2023-02-28T15:23:05;19.63;;;11.87;;